createdAt,value
2023-02-22T00:00:48.246Z,4.50
2023-02-22T00:03:27.644Z,4.32
2023-02-22T00:05:55.675Z,3.72
2023-02-22T00:08:23.196Z,4.00
2023-02-22T00:10:52.952Z,4.25
2023-02-22T00:13:19.860Z,4.10
2023-02-22T00:15:46.328Z,3.85
2023-02-22T00:18:13.741Z,3.60
2023-02-22T00:20:40.581Z,3.25
2023-02-22T00:23:08.301Z,3.08
2023-02-22T00:25:35.154Z,3.63
2023-02-22T00:28:01.802Z,3.45
2023-02-22T00:30:29.777Z,3.58
2023-02-22T00:32:56.774Z,3.10
2023-02-22T00:35:25.025Z,3.03
2023-02-22T00:37:52.243Z,3.15
2023-02-22T00:40:20.620Z,3.50
2023-02-22T00:42:47.182Z,3.47
2023-02-22T00:45:15.818Z,3.60
2023-02-22T00:47:42.320Z,3.20
2023-02-22T00:50:10.141Z,3.42
2023-02-22T00:52:37.305Z,3.67
2023-02-22T00:55:06.085Z,2.97
2023-02-22T00:57:35.188Z,3.28
2023-02-22T01:00:12.003Z,4.18
2023-02-22T01:02:39.367Z,3.78
2023-02-22T01:05:07.326Z,2.78
2023-02-22T01:07:34.763Z,3.10
2023-02-22T01:10:01.896Z,2.92
2023-02-22T01:12:29.218Z,3.17
2023-02-22T01:14:57.046Z,3.88
2023-02-22T01:17:27.116Z,3.55
2023-02-22T01:19:54.112Z,3.13
2023-02-22T01:22:21.431Z,2.88
2023-02-22T01:24:48.805Z,3.90
2023-02-22T01:27:15.396Z,3.03
2023-02-22T01:29:42.027Z,3.38
2023-02-22T01:32:08.864Z,3.95
2023-02-22T01:34:35.385Z,3.65
2023-02-22T01:37:01.845Z,4.47
2023-02-22T01:39:28.324Z,4.63
2023-02-22T01:41:54.786Z,4.47
2023-02-22T01:44:27.819Z,4.95
2023-02-22T01:46:55.125Z,5.43
2023-02-22T01:49:21.983Z,5.63
2023-02-22T01:51:50.478Z,4.95
2023-02-22T01:54:21.712Z,6.28
2023-02-22T01:57:00.962Z,5.80
2023-02-22T01:59:29.729Z,5.45
2023-02-22T02:01:56.225Z,6.28
2023-02-22T02:04:25.688Z,5.88
2023-02-22T02:06:52.970Z,5.70
2023-02-22T02:09:40.078Z,5.05
2023-02-22T02:12:08.496Z,5.22
2023-02-22T02:14:40.389Z,5.80
2023-02-22T02:17:10.930Z,4.80
2023-02-22T02:19:45.431Z,5.30
2023-02-22T02:22:30.725Z,5.80
2023-02-22T02:25:05.236Z,5.20
2023-02-22T02:27:50.364Z,5.68
2023-02-22T02:30:45.981Z,5.97
2023-02-22T02:33:19.846Z,5.55
2023-02-22T02:38:25.077Z,4.57
2023-02-22T02:40:55.323Z,5.55
2023-02-22T02:43:29.101Z,6.18
2023-02-22T02:45:58.276Z,5.65
2023-02-22T02:48:27.010Z,5.18
2023-02-22T02:50:55.481Z,5.38
2023-02-22T02:53:25.485Z,5.43
2023-02-22T02:55:51.926Z,5.70
2023-02-22T02:58:22.949Z,5.32
2023-02-22T03:00:51.252Z,5.13
2023-02-22T03:03:37.502Z,4.93
2023-02-22T03:06:10.269Z,5.90
2023-02-22T03:09:06.381Z,5.28
2023-02-22T03:11:37.840Z,4.60
2023-02-22T03:14:21.070Z,5.85
2023-02-22T03:16:50.498Z,5.90
2023-02-22T03:19:23.074Z,5.60
2023-02-22T03:21:58.439Z,5.32
2023-02-22T03:24:31.028Z,4.47
2023-02-22T03:27:02.885Z,5.10
2023-02-22T03:29:35.625Z,4.85
2023-02-22T03:32:04.586Z,4.85
2023-02-22T03:34:35.702Z,5.57
2023-02-22T03:37:14.518Z,3.50
2023-02-22T03:39:42.052Z,2.97
2023-02-22T03:42:28.754Z,1.35
2023-02-22T03:44:58.014Z,0.50
2023-02-22T03:47:42.047Z,0.38
2023-02-22T03:52:35.697Z,0.20
2023-02-22T03:55:02.767Z,0.20
2023-02-22T03:57:32.850Z,0.20
2023-02-22T03:59:59.442Z,0.20
2023-02-22T04:02:26.012Z,0.10
2023-02-22T04:04:52.588Z,0.20
2023-02-22T04:07:19.776Z,0.30
2023-02-22T04:09:46.804Z,0.30
2023-02-22T04:12:13.390Z,0.28
2023-02-22T04:14:39.828Z,0.20
2023-02-22T04:17:06.307Z,0.20
2023-02-22T04:19:32.758Z,0.30
2023-02-22T04:21:59.211Z,0.30
2023-02-22T04:24:25.795Z,0.20
2023-02-22T04:26:52.998Z,0.30
2023-02-22T04:29:19.500Z,0.40
2023-02-22T04:31:46.001Z,0.40
2023-02-22T04:34:12.517Z,0.22
2023-02-22T04:36:38.973Z,0.30
2023-02-22T04:39:05.498Z,0.25
2023-02-22T04:41:31.982Z,0.30
2023-02-22T04:43:58.462Z,0.40
2023-02-22T04:46:24.972Z,0.30
2023-02-22T04:48:51.510Z,0.30
2023-02-22T04:51:19.920Z,0.30
2023-02-22T04:53:46.458Z,0.25
2023-02-22T04:56:12.913Z,0.35
2023-02-22T04:58:39.464Z,0.30
2023-02-22T05:01:05.928Z,0.30
2023-02-22T05:03:32.385Z,0.30
2023-02-22T05:05:58.997Z,0.45
2023-02-22T05:08:25.468Z,0.30
2023-02-22T05:10:51.914Z,0.20
2023-02-22T05:13:18.550Z,0.30
2023-02-22T05:15:45.155Z,0.30
2023-02-22T05:18:11.619Z,0.22
2023-02-22T05:20:38.362Z,0.30
2023-02-22T05:23:05.643Z,0.40
2023-02-22T05:25:33.336Z,0.20
2023-02-22T05:28:04.723Z,0.20
2023-02-22T05:30:32.690Z,0.30
2023-02-22T05:32:59.594Z,0.30
2023-02-22T05:35:26.549Z,0.20
2023-02-22T05:37:53.020Z,0.30
2023-02-22T05:40:20.915Z,0.20
2023-02-22T05:42:49.054Z,0.40
2023-02-22T05:45:16.295Z,0.40
2023-02-22T05:47:42.816Z,0.30
2023-02-22T05:50:09.748Z,0.30
2023-02-22T05:52:36.252Z,0.30
2023-02-22T05:55:02.791Z,0.30
2023-02-22T05:57:29.242Z,0.40
2023-02-22T05:59:55.738Z,0.30
2023-02-22T06:02:22.198Z,0.50
2023-02-22T06:04:48.645Z,0.50
2023-02-22T06:07:15.188Z,0.85
2023-02-22T06:09:41.676Z,0.40
2023-02-22T06:12:08.637Z,0.30
2023-02-22T06:14:35.336Z,0.38
2023-02-22T06:17:02.088Z,0.30
2023-02-22T06:19:28.549Z,0.57
2023-02-22T06:21:56.138Z,0.45
2023-02-22T06:24:22.910Z,0.40
2023-02-22T06:26:57.014Z,0.32
2023-02-22T06:29:24.648Z,0.40
2023-02-22T06:31:51.295Z,0.40
2023-02-22T06:34:18.156Z,0.25
2023-02-22T06:36:44.925Z,0.40
2023-02-22T06:39:11.408Z,0.38
2023-02-22T06:41:38.454Z,0.22
2023-02-22T06:44:05.641Z,0.30
2023-02-22T06:46:32.593Z,0.25
2023-02-22T06:49:01.878Z,0.30
2023-02-22T06:51:28.952Z,0.50
2023-02-22T06:53:55.430Z,0.30
2023-02-22T06:56:21.931Z,0.30
2023-02-22T06:58:49.498Z,0.30
2023-02-22T07:01:16.579Z,0.50
2023-02-22T07:03:43.408Z,0.30
2023-02-22T07:06:10.858Z,0.45
2023-02-22T07:08:37.574Z,0.30
2023-02-22T07:11:04.137Z,0.50
2023-02-22T07:13:30.634Z,0.65
2023-02-22T07:15:57.104Z,0.68
2023-02-22T07:18:24.204Z,0.35
2023-02-22T07:20:50.734Z,0.43
2023-02-22T07:23:17.323Z,0.90
2023-02-22T07:25:44.228Z,0.57
2023-02-22T07:28:11.118Z,0.70
2023-02-22T07:30:37.936Z,0.60
2023-02-22T07:33:05.680Z,0.90
2023-02-22T07:35:39.893Z,0.70
2023-02-22T07:38:08.209Z,0.95
2023-02-22T07:40:36.629Z,0.90
2023-02-22T07:43:13.961Z,0.75
2023-02-22T07:45:40.509Z,0.60
2023-02-22T07:48:07.507Z,0.40
2023-02-22T07:50:34.909Z,0.60
2023-02-22T07:53:02.818Z,0.70
2023-02-22T07:55:30.062Z,0.40
2023-02-22T07:58:00.987Z,0.43
2023-02-22T08:00:37.636Z,0.55
2023-02-22T08:03:05.435Z,0.60
2023-02-22T08:05:32.542Z,0.70
2023-02-22T08:08:00.523Z,0.63
2023-02-22T08:10:27.346Z,0.60
2023-02-22T08:12:54.158Z,0.52
2023-02-22T08:15:22.633Z,0.52
2023-02-22T08:17:49.079Z,0.50
2023-02-22T08:20:15.653Z,1.00
2023-02-22T08:22:45.407Z,0.60
2023-02-22T08:25:12.748Z,0.52
2023-02-22T08:27:39.222Z,0.70
2023-02-22T08:30:06.239Z,0.98
2023-02-22T08:32:32.940Z,0.50
2023-02-22T08:34:59.601Z,1.08
2023-02-22T08:37:26.058Z,0.70
2023-02-22T08:39:53.151Z,0.70
2023-02-22T08:42:19.665Z,0.63
2023-02-22T08:44:46.184Z,0.73
2023-02-22T08:47:12.672Z,1.02
2023-02-22T08:49:39.161Z,0.60
2023-02-22T08:52:05.621Z,0.35
2023-02-22T08:54:32.099Z,0.40
2023-02-22T08:56:58.615Z,0.65
2023-02-22T08:59:25.141Z,0.60
2023-02-22T09:01:51.730Z,0.65
2023-02-22T09:04:18.214Z,0.73
2023-02-22T09:06:48.368Z,1.25
2023-02-22T09:09:14.899Z,0.80
2023-02-22T09:11:41.369Z,0.80
2023-02-22T09:14:07.812Z,0.63
2023-02-22T09:16:34.326Z,0.80
2023-02-22T09:19:00.893Z,0.90
2023-02-22T09:21:27.337Z,0.60
2023-02-22T09:23:54.808Z,0.63
2023-02-22T09:26:23.626Z,0.80
2023-02-22T09:28:50.431Z,0.75
2023-02-22T09:31:17.389Z,1.05
2023-02-22T09:33:47.122Z,1.55
2023-02-22T09:36:14.195Z,1.20
2023-02-22T09:38:40.942Z,1.30
2023-02-22T09:41:12.409Z,1.30
2023-02-22T09:43:42.776Z,1.10
2023-02-22T09:46:27.484Z,0.95
2023-02-22T09:49:14.011Z,0.90
2023-02-22T09:51:49.403Z,0.93
2023-02-22T09:54:18.931Z,0.80
2023-02-22T09:56:47.206Z,1.95
2023-02-22T09:59:18.823Z,1.10
2023-02-22T10:01:47.650Z,1.17
2023-02-22T10:04:19.654Z,1.60
2023-02-22T10:07:06.282Z,1.15
2023-02-22T10:09:37.676Z,1.17
2023-02-22T10:12:12.833Z,1.25
2023-02-22T10:14:53.511Z,2.08
2023-02-22T10:17:19.965Z,0.98
2023-02-22T10:19:55.263Z,1.67
2023-02-22T10:22:27.725Z,1.20
2023-02-22T10:25:04.884Z,0.90
2023-02-22T10:27:42.740Z,1.13
2023-02-22T10:30:23.866Z,1.35
2023-02-22T10:32:55.357Z,1.63
2023-02-22T10:35:27.716Z,1.20
2023-02-22T10:37:59.523Z,1.45
2023-02-22T10:40:32.273Z,1.27
2023-02-22T10:43:06.329Z,1.40
2023-02-22T10:45:33.850Z,2.00
2023-02-22T10:48:02.003Z,1.45
2023-02-22T10:50:29.758Z,1.20
2023-02-22T10:52:56.399Z,1.58
2023-02-22T10:55:22.923Z,2.20
2023-02-22T10:57:51.638Z,1.70
2023-02-22T11:00:21.146Z,1.70
2023-02-22T11:02:55.145Z,1.95
2023-02-22T11:05:29.822Z,1.33
2023-02-22T11:08:33.222Z,1.30
2023-02-22T11:11:04.887Z,1.13
2023-02-22T11:13:37.750Z,1.30
2023-02-22T11:16:21.158Z,1.77
2023-02-22T11:18:47.878Z,1.60
2023-02-22T11:21:20.917Z,1.40
2023-02-22T11:23:47.426Z,1.67
2023-02-22T11:26:15.290Z,1.90
2023-02-22T11:28:49.731Z,1.38
2023-02-22T11:31:39.054Z,2.28
2023-02-22T11:34:05.627Z,1.50
2023-02-22T11:36:37.959Z,1.73
2023-02-22T11:39:06.286Z,2.03
2023-02-22T11:41:36.618Z,2.10
2023-02-22T11:44:14.117Z,1.50
2023-02-22T11:46:41.514Z,2.50
2023-02-22T11:49:10.318Z,2.22
2023-02-22T11:51:48.895Z,3.95
2023-02-22T11:54:33.984Z,1.90
2023-02-22T11:57:08.549Z,1.88
2023-02-22T11:59:38.420Z,2.03
2023-02-22T12:02:23.677Z,1.90
2023-02-22T12:05:08.954Z,1.70
2023-02-22T12:07:38.272Z,2.35
2023-02-22T12:10:23.342Z,1.20
2023-02-22T12:12:55.680Z,1.98
2023-02-22T12:15:34.394Z,1.73
2023-02-22T12:18:30.279Z,1.38
2023-02-22T12:21:06.486Z,2.17
2023-02-22T12:23:45.006Z,1.35
2023-02-22T12:26:16.667Z,1.83
2023-02-22T12:28:49.355Z,1.27
2023-02-22T12:31:20.253Z,1.85
2023-02-22T12:33:50.515Z,1.35
2023-02-22T12:36:19.332Z,1.38
2023-02-22T12:38:48.804Z,1.70
2023-02-22T12:41:20.717Z,1.63
2023-02-22T12:43:47.294Z,1.88
2023-02-22T12:46:19.005Z,1.52
2023-02-22T12:49:00.864Z,1.25
2023-02-22T12:51:33.616Z,2.13
2023-02-22T12:54:03.222Z,1.20
2023-02-22T12:56:37.527Z,1.63
2023-02-22T12:59:10.228Z,1.52
2023-02-22T13:01:39.294Z,1.90
2023-02-22T13:04:20.138Z,2.50
2023-02-22T13:06:59.716Z,1.40
2023-02-22T13:09:35.171Z,1.85
2023-02-22T13:12:04.642Z,1.70
2023-02-22T13:14:40.345Z,1.70
2023-02-22T13:17:21.895Z,1.35
2023-02-22T13:19:52.778Z,1.55
2023-02-22T13:22:24.492Z,1.33
2023-02-22T13:24:58.547Z,1.70
2023-02-22T13:27:33.017Z,1.00
2023-02-22T13:30:01.460Z,2.15
2023-02-22T13:32:45.352Z,1.60
2023-02-22T13:35:35.148Z,1.35
2023-02-22T13:38:01.603Z,1.33
2023-02-22T13:40:30.928Z,1.88
2023-02-22T13:43:06.708Z,1.23
2023-02-22T13:46:00.282Z,2.38
2023-02-22T13:48:45.535Z,1.87
2023-02-22T13:51:31.016Z,1.58
2023-02-22T13:54:09.416Z,1.33
2023-02-22T13:56:36.213Z,1.60
2023-02-22T13:59:04.108Z,1.27
2023-02-22T14:01:40.879Z,1.48
2023-02-22T14:04:22.473Z,1.33
2023-02-22T14:06:49.482Z,1.33
2023-02-22T14:09:20.092Z,1.27
2023-02-22T14:11:47.619Z,1.23
2023-02-22T14:14:17.238Z,1.58
2023-02-22T14:16:44.005Z,1.85
2023-02-22T14:19:13.490Z,1.33
2023-02-22T14:22:07.262Z,1.10
2023-02-22T14:24:44.770Z,1.00
2023-02-22T14:27:11.634Z,1.25
2023-02-22T14:29:38.366Z,1.25
2023-02-22T14:32:10.730Z,1.33
2023-02-22T14:34:43.161Z,1.30
2023-02-22T14:37:14.246Z,1.42
2023-02-22T14:39:43.611Z,1.27
2023-02-22T14:42:28.254Z,0.90
2023-02-22T14:45:10.443Z,1.38
2023-02-22T14:47:50.109Z,1.38
2023-02-22T14:50:23.289Z,0.73
2023-02-22T14:53:01.800Z,0.75
2023-02-22T14:55:30.096Z,0.80
2023-02-22T14:58:08.949Z,0.88
2023-02-22T15:00:38.612Z,0.60
2023-02-22T15:03:05.160Z,0.80
2023-02-22T15:05:38.483Z,0.70
2023-02-22T15:08:06.335Z,0.80
2023-02-22T15:10:43.054Z,1.05
2023-02-22T15:13:23.944Z,0.55
2023-02-22T15:16:02.132Z,1.40
2023-02-22T15:18:34.936Z,1.10
2023-02-22T15:21:07.228Z,0.70
2023-02-22T15:23:41.708Z,1.00
2023-02-22T15:26:08.882Z,0.82
2023-02-22T15:28:38.500Z,0.98
2023-02-22T15:31:34.723Z,1.15
2023-02-22T15:34:18.984Z,1.17
2023-02-22T15:36:47.447Z,1.08
2023-02-22T15:39:20.135Z,0.80
2023-02-22T15:41:46.769Z,0.57
2023-02-22T15:44:23.380Z,0.52
2023-02-22T15:46:51.084Z,0.65
2023-02-22T15:49:19.846Z,0.88
2023-02-22T15:51:49.256Z,1.20
2023-02-22T15:54:26.626Z,0.88
2023-02-22T15:56:57.656Z,1.30
2023-02-22T15:59:33.337Z,1.42
2023-02-22T16:02:00.071Z,1.30
2023-02-22T16:04:29.520Z,1.23
2023-02-22T16:07:08.203Z,1.45
2023-02-22T16:09:34.798Z,1.35
2023-02-22T16:12:12.083Z,1.55
2023-02-22T16:14:38.532Z,1.70
2023-02-22T16:17:13.198Z,2.25
2023-02-22T16:19:42.635Z,2.30
2023-02-22T16:22:23.401Z,2.30
2023-02-22T16:24:52.312Z,2.60
2023-02-22T16:27:20.135Z,1.77
2023-02-22T16:30:07.778Z,2.13
2023-02-22T16:32:36.588Z,3.13
2023-02-22T16:35:03.310Z,1.80
2023-02-22T16:37:29.922Z,2.28
2023-02-22T16:39:56.873Z,2.08
2023-02-22T16:42:26.078Z,1.60
2023-02-22T16:44:53.204Z,2.35
2023-02-22T16:47:20.050Z,2.22
2023-02-22T16:49:52.952Z,2.08
2023-02-22T16:52:20.504Z,2.10
2023-02-22T16:54:47.323Z,3.10
2023-02-22T16:57:18.952Z,2.13
2023-02-22T16:59:47.997Z,2.60
2023-02-22T17:02:15.439Z,2.15
2023-02-22T17:04:43.985Z,2.00
2023-02-22T17:07:10.535Z,2.88
2023-02-22T17:09:39.562Z,2.70
2023-02-22T17:12:06.356Z,1.83
2023-02-22T17:14:35.001Z,1.85
2023-02-22T17:17:01.608Z,2.03
2023-02-22T17:19:28.073Z,2.20
2023-02-22T17:21:54.525Z,3.03
2023-02-22T17:24:23.044Z,2.70
2023-02-22T17:26:49.785Z,2.47
2023-02-22T17:29:17.829Z,2.90
2023-02-22T17:31:44.939Z,3.85
2023-02-22T17:34:11.493Z,2.53
2023-02-22T17:36:37.994Z,3.25
2023-02-22T17:39:05.197Z,3.78
2023-02-22T17:41:31.649Z,4.20
2023-02-22T17:43:58.209Z,7.10
2023-02-22T17:46:25.464Z,6.20
2023-02-22T17:48:54.937Z,3.25
2023-02-22T17:51:22.660Z,2.63
2023-02-22T17:53:49.120Z,3.00
2023-02-22T17:56:19.622Z,2.10
2023-02-22T17:58:50.427Z,2.53
2023-02-22T18:01:27.126Z,2.22
2023-02-22T18:03:58.826Z,2.10
2023-02-22T18:06:27.310Z,1.88
2023-02-22T18:08:56.360Z,2.42
2023-02-22T18:11:26.494Z,2.40
2023-02-22T18:13:57.434Z,1.83
2023-02-22T18:16:26.140Z,3.78
2023-02-22T18:18:53.117Z,3.15
2023-02-22T18:21:19.576Z,2.22
2023-02-22T18:23:46.176Z,2.28
2023-02-22T18:26:19.964Z,2.35
2023-02-22T18:31:16.163Z,2.85
2023-02-22T18:33:43.345Z,2.55
2023-02-22T18:36:11.503Z,1.88
2023-02-22T18:38:42.772Z,2.35
2023-02-22T18:41:10.437Z,2.03
2023-02-22T18:43:37.258Z,1.92
2023-02-22T18:46:10.111Z,3.08
2023-02-22T18:48:37.146Z,3.93
2023-02-22T18:51:06.011Z,3.95
2023-02-22T18:53:33.521Z,2.88
2023-02-22T18:56:03.887Z,3.17
2023-02-22T18:58:32.849Z,3.47
2023-02-22T19:01:02.636Z,3.72
2023-02-22T19:03:29.815Z,3.10
2023-02-22T19:06:01.226Z,4.18
2023-02-22T19:08:28.580Z,3.10
2023-02-22T19:10:55.096Z,2.58
2023-02-22T19:13:21.644Z,2.70
2023-02-22T19:15:49.075Z,3.50
2023-02-22T19:18:15.767Z,3.67
2023-02-22T19:20:42.358Z,4.28
2023-02-22T19:23:10.523Z,2.65
2023-02-22T19:25:40.401Z,2.33
2023-02-22T19:28:06.976Z,3.13
2023-02-22T19:30:33.431Z,4.03
2023-02-22T19:33:02.597Z,3.58
2023-02-22T19:35:29.894Z,3.97
2023-02-22T19:37:56.349Z,2.95
2023-02-22T19:40:23.301Z,3.08
2023-02-22T19:42:54.644Z,3.22
2023-02-22T19:45:21.715Z,2.80
2023-02-22T19:47:48.781Z,2.13
2023-02-22T19:50:16.330Z,1.88
2023-02-22T19:52:42.840Z,1.60
2023-02-22T19:55:12.796Z,2.75
2023-02-22T19:57:40.641Z,1.80
2023-02-22T20:00:11.235Z,2.25
2023-02-22T20:02:39.496Z,2.10
2023-02-22T20:05:13.223Z,2.38
2023-02-22T20:10:07.232Z,2.45
2023-02-22T20:12:33.721Z,2.65
2023-02-22T20:15:00.405Z,3.22
2023-02-22T20:17:27.482Z,2.80
2023-02-22T20:19:53.967Z,2.60
2023-02-22T20:22:20.973Z,3.95
2023-02-22T20:24:48.319Z,3.03
2023-02-22T20:27:15.307Z,2.83
2023-02-22T20:29:41.998Z,3.97
2023-02-22T20:32:10.535Z,2.33
2023-02-22T20:34:37.128Z,3.17
2023-02-22T20:37:04.889Z,2.03
2023-02-22T20:39:31.435Z,3.15
2023-02-22T20:42:00.771Z,3.30
2023-02-22T20:44:27.938Z,2.88
2023-02-22T20:46:54.752Z,2.22
2023-02-22T20:49:21.578Z,1.98
2023-02-22T20:51:48.888Z,2.15
2023-02-22T20:54:16.042Z,2.20
2023-02-22T20:56:43.951Z,1.92
2023-02-22T20:59:11.935Z,2.00
2023-02-22T21:01:38.687Z,2.60
2023-02-22T21:04:06.689Z,2.25
2023-02-22T21:06:35.410Z,3.95
2023-02-22T21:09:05.597Z,1.92
2023-02-22T21:11:32.189Z,2.13
2023-02-22T21:13:59.342Z,2.35
2023-02-22T21:16:29.905Z,2.33
2023-02-22T21:18:58.758Z,2.65
2023-02-22T21:21:27.318Z,2.42
2023-02-22T21:23:56.106Z,2.42
2023-02-22T21:26:23.817Z,2.80
2023-02-22T21:28:51.835Z,3.08
2023-02-22T21:31:20.016Z,3.28
2023-02-22T21:33:48.601Z,3.42
2023-02-22T21:36:15.684Z,2.85
2023-02-22T21:38:43.708Z,2.70
2023-02-22T21:41:11.415Z,2.75
2023-02-22T21:43:37.987Z,2.90
2023-02-22T21:46:05.235Z,3.78
2023-02-22T21:48:31.921Z,3.42
2023-02-22T21:50:58.437Z,2.40
2023-02-22T21:53:25.082Z,2.72
2023-02-22T21:55:53.555Z,4.20
2023-02-22T21:58:20.499Z,3.05
2023-02-22T22:00:47.042Z,2.20
2023-02-22T22:03:20.340Z,2.35
2023-02-22T22:05:49.829Z,4.35
2023-02-22T22:08:27.564Z,1.95
2023-02-22T22:10:57.631Z,2.47
2023-02-22T22:13:28.357Z,2.65
2023-02-22T22:15:54.948Z,3.17
2023-02-22T22:18:21.701Z,2.40
2023-02-22T22:20:51.684Z,2.08
2023-02-22T22:23:18.165Z,1.90
2023-02-22T22:25:44.635Z,2.05
2023-02-22T22:28:11.437Z,2.10
2023-02-22T22:30:38.005Z,2.60
2023-02-22T22:33:05.738Z,2.92
2023-02-22T22:35:33.618Z,2.63
2023-02-22T22:38:01.022Z,3.58
2023-02-22T22:40:27.983Z,2.88
2023-02-22T22:42:54.452Z,3.42
2023-02-22T22:45:21.083Z,3.08
2023-02-22T22:47:48.306Z,2.25
2023-02-22T22:50:15.451Z,2.50
2023-02-22T22:52:42.149Z,2.33
2023-02-22T22:55:12.102Z,2.20
2023-02-22T22:57:39.756Z,2.42
2023-02-22T23:00:26.790Z,3.17
2023-02-22T23:02:56.285Z,2.67
2023-02-22T23:05:27.856Z,2.53
2023-02-22T23:07:56.288Z,2.97
2023-02-22T23:10:29.379Z,3.10
2023-02-22T23:12:58.814Z,2.70
2023-02-22T23:15:25.406Z,3.95
2023-02-22T23:17:56.110Z,2.47
2023-02-22T23:20:26.258Z,2.75
2023-02-22T23:22:53.307Z,3.25
2023-02-22T23:25:20.664Z,2.70
2023-02-22T23:27:47.362Z,3.05
2023-02-22T23:30:15.036Z,2.22
2023-02-22T23:32:46.599Z,2.17
2023-02-22T23:35:14.155Z,2.67
2023-02-22T23:37:40.670Z,1.90
2023-02-22T23:40:17.163Z,2.22
2023-02-22T23:42:47.503Z,1.73
2023-02-22T23:45:22.807Z,2.42
2023-02-22T23:47:56.656Z,2.10
2023-02-22T23:52:50.899Z,2.13
2023-02-22T23:55:20.819Z,1.88
2023-02-22T23:57:47.813Z,2.45
